createdAt,value
2017-11-17T00:01:45.373Z,8.78
2017-11-17T00:04:14.965Z,8.92
2017-11-17T00:06:45.197Z,8.97
2017-11-17T00:09:14.837Z,8.62
2017-11-17T00:11:43.931Z,8.92
2017-11-17T00:14:13.630Z,8.89
2017-11-17T00:16:42.900Z,8.84
2017-11-17T00:19:12.650Z,8.72
2017-11-17T00:21:41.468Z,8.63
2017-11-17T00:24:10.350Z,8.63
2017-11-17T00:26:39.420Z,8.72
2017-11-17T00:29:08.378Z,8.50
2017-11-17T00:31:37.484Z,8.68
2017-11-17T00:34:06.389Z,8.61
2017-11-17T00:36:35.191Z,8.34
2017-11-17T00:39:03.931Z,8.64
2017-11-17T00:41:34.278Z,8.28
2017-11-17T00:44:03.076Z,8.30
2017-11-17T00:46:31.841Z,8.38
2017-11-17T00:49:00.717Z,8.25
2017-11-17T00:51:29.599Z,8.31
2017-11-17T00:53:58.482Z,8.32
2017-11-17T00:56:27.861Z,8.15
2017-11-17T00:58:56.932Z,8.11
2017-11-17T01:01:25.848Z,8.63
2017-11-17T01:03:54.683Z,8.59
2017-11-17T01:06:23.497Z,8.53
2017-11-17T01:08:52.307Z,8.53
2017-11-17T01:11:21.160Z,8.44
2017-11-17T01:13:49.919Z,8.61
2017-11-17T01:16:18.978Z,8.38
2017-11-17T01:18:47.726Z,8.34
2017-11-17T01:21:17.191Z,8.76
2017-11-17T01:23:45.971Z,8.71
2017-11-17T01:26:15.278Z,8.39
2017-11-17T01:28:44.160Z,8.28
2017-11-17T01:31:13.022Z,8.30
2017-11-17T01:33:42.976Z,8.43
2017-11-17T01:36:11.862Z,8.58
2017-11-17T01:38:41.023Z,8.64
2017-11-17T01:41:10.440Z,8.69
2017-11-17T01:43:39.302Z,8.62
2017-11-17T01:46:08.301Z,8.69
2017-11-17T01:48:37.323Z,8.51
2017-11-17T01:51:06.191Z,8.45
2017-11-17T01:53:34.976Z,8.45
2017-11-17T01:56:03.808Z,8.24
2017-11-17T01:58:32.583Z,8.23
2017-11-17T02:01:01.476Z,8.77
2017-11-17T02:03:30.202Z,8.54
2017-11-17T02:05:59.153Z,9.05
2017-11-17T02:08:27.975Z,8.66
2017-11-17T02:10:57.069Z,8.48
2017-11-17T02:13:26.783Z,8.32
2017-11-17T02:15:55.614Z,8.57
2017-11-17T02:18:24.421Z,8.41
2017-11-17T02:20:53.387Z,8.39
2017-11-17T02:23:22.252Z,8.55
2017-11-17T02:25:51.152Z,8.37
2017-11-17T02:28:19.954Z,8.40
2017-11-17T02:30:48.742Z,8.48
2017-11-17T02:33:17.442Z,8.22
2017-11-17T02:35:46.257Z,8.65
2017-11-17T02:38:15.073Z,8.48
2017-11-17T02:40:44.719Z,8.32
2017-11-17T02:43:14.242Z,8.47
2017-11-17T02:45:43.035Z,8.48
2017-11-17T02:48:11.904Z,8.48
2017-11-17T02:50:40.604Z,8.52
2017-11-17T02:53:09.404Z,8.49
2017-11-17T02:55:39.414Z,8.69
2017-11-17T02:58:08.899Z,8.41
2017-11-17T03:00:38.785Z,8.57
2017-11-17T03:03:08.903Z,8.35
2017-11-17T03:05:37.566Z,8.33
2017-11-17T03:08:06.717Z,8.23
2017-11-17T03:10:35.471Z,8.30
2017-11-17T03:13:04.182Z,8.41
2017-11-17T03:15:33.003Z,8.55
2017-11-17T03:18:01.738Z,8.48
2017-11-17T03:20:30.636Z,8.24
2017-11-17T03:22:59.260Z,8.21
2017-11-17T03:25:28.199Z,8.58
2017-11-17T03:27:59.274Z,8.49
2017-11-17T03:30:28.002Z,8.00
2017-11-17T03:32:56.845Z,8.21
2017-11-17T03:35:26.165Z,8.18
2017-11-17T03:37:55.426Z,8.01
2017-11-17T03:40:24.805Z,8.38
2017-11-17T03:42:53.594Z,8.12
2017-11-17T03:45:22.265Z,8.36
2017-11-17T03:47:51.105Z,8.71
2017-11-17T03:50:19.937Z,8.89
2017-11-17T03:52:49.116Z,8.96
2017-11-17T03:55:17.811Z,9.05
2017-11-17T03:57:47.604Z,9.05
2017-11-17T04:00:16.444Z,8.89
2017-11-17T04:02:45.215Z,8.78
2017-11-17T04:05:14.052Z,8.38
2017-11-17T04:07:42.897Z,8.37
2017-11-17T04:10:11.582Z,8.32
2017-11-17T04:12:40.484Z,8.47
2017-11-17T04:15:10.295Z,8.24
2017-11-17T04:17:40.498Z,8.17
2017-11-17T04:20:10.313Z,8.25
2017-11-17T04:22:39.060Z,8.06
2017-11-17T04:25:08.128Z,8.08
2017-11-17T04:27:37.123Z,8.15
2017-11-17T04:30:06.846Z,8.23
2017-11-17T04:32:35.601Z,8.32
2017-11-17T04:35:05.266Z,7.95
2017-11-17T04:37:34.193Z,7.86
2017-11-17T04:40:03.049Z,8.01
2017-11-17T04:42:31.909Z,8.15
2017-11-17T04:45:00.903Z,7.86
2017-11-17T04:47:29.616Z,7.95
2017-11-17T04:49:58.587Z,8.11
2017-11-17T04:52:28.264Z,7.97
2017-11-17T04:54:57.378Z,8.11
2017-11-17T04:57:26.188Z,8.24
2017-11-17T04:59:55.098Z,7.90
2017-11-17T05:02:25.106Z,7.87
2017-11-17T05:04:54.598Z,7.95
2017-11-17T05:07:23.448Z,8.12
2017-11-17T05:09:52.589Z,8.06
2017-11-17T05:12:21.524Z,8.12
2017-11-17T05:14:50.305Z,8.09
2017-11-17T05:17:19.231Z,8.09
2017-11-17T05:19:48.852Z,8.10
2017-11-17T05:22:17.703Z,8.12
2017-11-17T05:24:46.470Z,8.55
2017-11-17T05:27:15.268Z,8.75
2017-11-17T05:29:44.193Z,8.34
2017-11-17T05:32:13.543Z,8.35
2017-11-17T05:34:42.470Z,8.40
2017-11-17T05:37:11.485Z,8.51
2017-11-17T05:39:40.220Z,8.06
2017-11-17T05:42:09.261Z,8.57
2017-11-17T05:44:38.498Z,8.28
2017-11-17T05:47:07.407Z,8.24
2017-11-17T05:49:36.188Z,8.18
2017-11-17T05:52:05.145Z,8.22
2017-11-17T05:54:34.289Z,8.26
2017-11-17T05:57:03.376Z,8.25
2017-11-17T05:59:33.600Z,8.23
2017-11-17T06:02:03.834Z,8.32
2017-11-17T06:04:37.000Z,8.41
2017-11-17T06:07:06.897Z,8.15
2017-11-17T06:09:35.950Z,8.21
2017-11-17T06:12:04.790Z,8.24
2017-11-17T06:14:40.629Z,8.24
2017-11-17T06:17:09.499Z,8.16
2017-11-17T06:19:39.159Z,8.18
2017-11-17T06:22:08.567Z,8.34
2017-11-17T06:24:38.435Z,8.38
2017-11-17T06:27:09.501Z,8.56
2017-11-17T06:29:39.231Z,8.65
2017-11-17T06:32:08.079Z,8.47
2017-11-17T06:34:37.189Z,8.44
2017-11-17T06:37:06.892Z,8.35
2017-11-17T06:39:39.030Z,8.24
2017-11-17T06:42:07.738Z,8.21
2017-11-17T06:44:36.608Z,8.20
2017-11-17T06:47:05.580Z,8.48
2017-11-17T06:49:34.442Z,8.70
2017-11-17T06:52:04.072Z,8.89
2017-11-17T06:54:34.638Z,9.18
2017-11-17T06:57:03.380Z,9.24
2017-11-17T06:59:32.168Z,9.02
2017-11-17T07:02:00.965Z,9.22
2017-11-17T07:04:29.848Z,9.20
2017-11-17T07:06:58.710Z,9.25
2017-11-17T07:09:28.259Z,8.42
2017-11-17T07:11:57.121Z,8.36
2017-11-17T07:14:25.935Z,8.38
2017-11-17T07:16:54.688Z,8.31
2017-11-17T07:19:23.793Z,8.43
2017-11-17T07:21:52.533Z,8.38
2017-11-17T07:24:22.151Z,8.31
2017-11-17T07:26:51.109Z,8.73
2017-11-17T07:29:19.992Z,9.06
2017-11-17T07:31:48.819Z,9.07
2017-11-17T07:34:17.651Z,9.08
2017-11-17T07:36:46.411Z,8.63
2017-11-17T07:39:15.555Z,8.52
2017-11-17T07:41:44.527Z,7.73
2017-11-17T07:44:13.302Z,8.04
2017-11-17T07:46:42.396Z,7.74
2017-11-17T07:49:11.213Z,8.22
2017-11-17T07:51:40.061Z,8.35
2017-11-17T07:54:09.675Z,8.25
2017-11-17T07:56:38.444Z,8.32
2017-11-17T07:59:07.290Z,8.41
2017-11-17T08:01:36.170Z,8.05
2017-11-17T08:04:04.994Z,8.37
2017-11-17T08:06:34.108Z,8.30
2017-11-17T08:09:03.040Z,8.43
2017-11-17T08:11:31.820Z,8.87
2017-11-17T08:14:00.679Z,8.36
2017-11-17T08:16:30.031Z,8.43
2017-11-17T08:18:58.779Z,8.14
2017-11-17T08:21:27.831Z,8.21
2017-11-17T08:23:58.298Z,8.30
2017-11-17T08:26:29.840Z,8.27
2017-11-17T08:28:58.724Z,8.41
2017-11-17T08:31:28.602Z,8.22
2017-11-17T08:33:58.041Z,8.69
2017-11-17T08:36:28.049Z,8.33
2017-11-17T08:38:58.970Z,8.20
2017-11-17T08:41:28.771Z,8.28
2017-11-17T08:43:58.149Z,8.30
2017-11-17T08:46:29.621Z,8.19
2017-11-17T08:48:59.048Z,8.25
2017-11-17T08:51:28.378Z,8.36
2017-11-17T08:53:58.542Z,8.94
2017-11-17T08:56:28.808Z,9.01
2017-11-17T08:58:58.743Z,8.57
2017-11-17T09:01:28.438Z,8.53
2017-11-17T09:03:59.354Z,8.51
2017-11-17T09:06:28.544Z,8.15
2017-11-17T09:08:59.419Z,8.42
2017-11-17T09:11:28.826Z,8.33
2017-11-17T09:13:58.433Z,8.02
2017-11-17T09:16:29.236Z,8.13
2017-11-17T09:18:59.484Z,8.55
2017-11-17T09:21:28.589Z,8.70
2017-11-17T09:23:58.578Z,8.57
2017-11-17T09:26:27.418Z,9.18
2017-11-17T09:28:56.197Z,9.29
2017-11-17T09:31:24.961Z,9.16
2017-11-17T09:33:53.802Z,8.84
2017-11-17T09:36:23.079Z,9.16
2017-11-17T09:38:52.137Z,9.33
2017-11-17T09:41:21.080Z,9.21
2017-11-17T09:43:50.688Z,9.20
2017-11-17T09:46:19.710Z,9.02
2017-11-17T09:48:48.443Z,8.83
2017-11-17T09:51:17.359Z,9.16
2017-11-17T09:53:46.184Z,9.10
2017-11-17T09:56:15.062Z,9.22
2017-11-17T09:58:43.948Z,8.82
2017-11-17T10:01:13.267Z,9.06
2017-11-17T10:03:41.979Z,9.25
2017-11-17T10:06:10.718Z,8.92
2017-11-17T10:08:39.794Z,8.54
2017-11-17T10:11:08.616Z,8.78
2017-11-17T10:13:37.441Z,8.59
2017-11-17T10:16:06.479Z,8.96
2017-11-17T10:18:35.288Z,8.63
2017-11-17T10:21:04.259Z,9.27
2017-11-17T10:23:33.078Z,8.71
2017-11-17T10:26:02.759Z,8.58
2017-11-17T10:28:32.401Z,8.36
2017-11-17T10:31:01.599Z,8.21
2017-11-17T10:33:30.541Z,7.82
2017-11-17T10:35:59.540Z,8.00
2017-11-17T10:38:29.299Z,8.35
2017-11-17T10:40:58.480Z,8.61
2017-11-17T10:43:27.353Z,9.23
2017-11-17T10:45:56.466Z,9.22
2017-11-17T10:48:25.290Z,9.46
2017-11-17T10:50:54.385Z,9.27
2017-11-17T10:53:24.091Z,9.13
2017-11-17T10:55:53.780Z,8.97
2017-11-17T10:58:22.632Z,8.86
2017-11-17T11:00:52.011Z,8.72
2017-11-17T11:03:21.211Z,8.97
2017-11-17T11:08:18.020Z,9.08
2017-11-17T11:10:47.191Z,9.13
2017-11-17T11:13:17.644Z,8.95
2017-11-17T11:15:48.741Z,8.98
2017-11-17T11:18:18.654Z,8.64
2017-11-17T11:20:47.419Z,8.69
2017-11-17T11:23:16.443Z,8.71
2017-11-17T11:25:45.571Z,8.37
2017-11-17T11:28:14.697Z,9.01
2017-11-17T11:30:44.545Z,9.15
2017-11-17T11:33:13.418Z,9.03
2017-11-17T11:35:42.598Z,9.02
2017-11-17T11:38:11.519Z,9.37
2017-11-17T11:40:40.243Z,9.25
2017-11-17T11:43:09.123Z,9.04
2017-11-17T11:45:38.111Z,9.32
2017-11-17T11:48:07.816Z,9.49
2017-11-17T11:50:36.682Z,9.50
2017-11-17T11:53:05.710Z,9.34
2017-11-17T11:55:35.001Z,9.45
2017-11-17T11:58:03.945Z,9.37
2017-11-17T12:00:32.981Z,9.01
2017-11-17T12:03:01.888Z,9.18
2017-11-17T12:05:30.921Z,9.15
2017-11-17T12:08:01.071Z,8.86
2017-11-17T12:10:31.655Z,8.87
2017-11-17T12:13:00.929Z,8.97
2017-11-17T12:15:30.678Z,9.23
2017-11-17T12:17:59.903Z,9.03
2017-11-17T12:20:28.784Z,9.27
2017-11-17T12:22:58.995Z,9.24
2017-11-17T12:25:28.001Z,8.72
2017-11-17T12:27:56.934Z,8.28
2017-11-17T12:30:25.811Z,8.78
2017-11-17T12:32:54.852Z,8.77
2017-11-17T12:35:23.805Z,8.73
2017-11-17T12:37:52.612Z,8.50
2017-11-17T12:40:21.763Z,8.70
2017-11-17T12:42:50.791Z,9.18
2017-11-17T12:45:19.650Z,8.75
2017-11-17T12:47:49.022Z,8.54
2017-11-17T12:50:17.845Z,8.43
2017-11-17T12:52:46.700Z,9.04
2017-11-17T12:55:15.560Z,9.00
2017-11-17T12:57:44.621Z,8.66
2017-11-17T13:00:13.435Z,8.92
2017-11-17T13:02:42.122Z,8.86
2017-11-17T13:05:10.990Z,8.78
2017-11-17T13:07:39.982Z,8.62
2017-11-17T13:12:45.338Z,8.84
2017-11-17T13:15:14.237Z,8.80
2017-11-17T13:17:43.977Z,8.98
2017-11-17T13:20:13.211Z,8.99
2017-11-17T13:22:42.912Z,8.99
2017-11-17T13:25:11.661Z,9.16
2017-11-17T13:27:40.441Z,9.23
2017-11-17T13:30:09.239Z,9.15
2017-11-17T13:32:37.945Z,9.02
2017-11-17T13:35:06.897Z,9.12
2017-11-17T13:37:35.969Z,9.10
2017-11-17T13:40:05.153Z,8.74
2017-11-17T13:42:33.889Z,8.74
2017-11-17T13:45:02.670Z,8.75
2017-11-17T13:47:31.659Z,8.94
2017-11-17T13:50:01.651Z,8.88
2017-11-17T13:52:30.582Z,8.72
2017-11-17T13:55:00.221Z,8.73
2017-11-17T13:57:29.828Z,8.87
2017-11-17T13:59:58.606Z,8.74
2017-11-17T14:02:27.562Z,8.98
2017-11-17T14:04:56.450Z,8.90
2017-11-17T14:07:26.572Z,9.00
2017-11-17T14:09:55.503Z,9.14
2017-11-17T14:12:24.500Z,9.16
2017-11-17T14:14:53.339Z,8.59
2017-11-17T14:17:23.708Z,8.72
2017-11-17T14:19:53.314Z,9.14
2017-11-17T14:22:23.074Z,9.06
2017-11-17T14:24:51.977Z,8.94
2017-11-17T14:27:21.560Z,9.24
2017-11-17T14:29:51.021Z,8.98
2017-11-17T14:32:20.186Z,8.97
2017-11-17T14:34:48.836Z,9.32
2017-11-17T14:37:17.701Z,9.04
2017-11-17T14:39:48.264Z,8.90
2017-11-17T14:42:18.070Z,9.15
2017-11-17T14:44:46.954Z,9.23
2017-11-17T14:47:17.467Z,8.99
2017-11-17T14:49:46.307Z,9.10
2017-11-17T14:52:15.190Z,9.08
2017-11-17T14:54:43.894Z,8.99
2017-11-17T14:57:12.609Z,8.96
2017-11-17T14:59:42.074Z,8.88
2017-11-17T15:02:10.960Z,8.68
2017-11-17T15:11:59.576Z,8.35
2017-11-17T15:14:29.325Z,8.55
2017-11-17T15:16:58.401Z,8.83
2017-11-17T15:19:27.975Z,8.71
2017-11-17T15:21:56.745Z,8.72
2017-11-17T15:24:25.575Z,8.92
2017-11-17T15:26:54.436Z,8.88
2017-11-17T15:29:23.259Z,8.92
2017-11-17T15:31:51.992Z,8.54
2017-11-17T15:34:20.884Z,9.01
2017-11-17T15:36:49.614Z,8.93
2017-11-17T15:39:18.351Z,8.92
2017-11-17T15:41:47.405Z,8.88
2017-11-17T15:44:16.187Z,8.74
2017-11-17T15:46:45.781Z,8.90
2017-11-17T15:49:14.513Z,8.62
2017-11-17T15:51:43.324Z,8.99
2017-11-17T15:54:12.419Z,8.75
2017-11-17T15:56:41.394Z,8.94
2017-11-17T15:59:10.244Z,8.80
2017-11-17T16:01:40.083Z,9.16
2017-11-17T16:04:09.108Z,9.11
2017-11-17T16:06:37.916Z,8.90
2017-11-17T16:09:06.648Z,8.88
2017-11-17T16:11:36.203Z,8.95
2017-11-17T16:14:05.114Z,8.83
2017-11-17T16:16:34.713Z,8.92
2017-11-17T16:19:03.615Z,9.04
2017-11-17T16:21:32.395Z,8.93
2017-11-17T16:24:01.152Z,8.91
2017-11-17T16:26:30.100Z,8.97
2017-11-17T16:28:59.037Z,8.84
2017-11-17T16:31:27.969Z,8.87
2017-11-17T16:33:56.792Z,8.61
2017-11-17T16:36:25.452Z,8.74
2017-11-17T16:38:54.913Z,8.61
2017-11-17T16:41:23.694Z,8.34
2017-11-17T16:43:52.483Z,8.72
2017-11-17T16:46:21.329Z,8.81
2017-11-17T16:48:50.054Z,8.68
2017-11-17T16:51:19.371Z,8.51
2017-11-17T16:53:49.458Z,8.76
2017-11-17T16:56:18.365Z,8.53
2017-11-17T16:58:47.127Z,8.74
2017-11-17T17:01:15.868Z,8.90
2017-11-17T17:03:44.886Z,8.77
2017-11-17T17:06:13.694Z,8.55
2017-11-17T17:08:42.502Z,8.51
2017-11-17T17:11:11.562Z,8.83
2017-11-17T17:13:40.314Z,8.87
2017-11-17T17:16:09.031Z,8.92
2017-11-17T17:18:37.825Z,9.08
2017-11-17T17:21:06.741Z,8.97
2017-11-17T17:23:35.494Z,8.92
2017-11-17T17:26:04.285Z,8.61
2017-11-17T17:28:33.408Z,8.60
2017-11-17T17:31:04.137Z,8.88
2017-11-17T17:33:34.304Z,9.02
2017-11-17T17:36:04.238Z,8.92
2017-11-17T17:38:34.488Z,8.85
2017-11-17T17:41:04.865Z,8.14
2017-11-17T17:43:33.745Z,8.49
2017-11-17T17:46:04.399Z,8.92
2017-11-17T17:48:33.547Z,8.81
2017-11-17T17:51:03.523Z,8.96
2017-11-17T17:53:32.399Z,8.78
2017-11-17T17:56:01.173Z,9.23
2017-11-17T17:58:30.819Z,9.16
2017-11-17T18:00:59.943Z,9.07
2017-11-17T18:03:29.096Z,8.81
2017-11-17T18:05:57.964Z,9.02
2017-11-17T18:08:26.943Z,8.99
2017-11-17T18:10:55.748Z,9.13
2017-11-17T18:13:24.956Z,8.92
2017-11-17T18:15:54.717Z,8.67
2017-11-17T18:18:23.656Z,8.89
2017-11-17T18:20:53.224Z,8.77
2017-11-17T18:23:22.206Z,8.91
2017-11-17T18:25:51.231Z,8.93
2017-11-17T18:28:20.097Z,9.01
2017-11-17T18:30:49.750Z,8.77
2017-11-17T18:33:18.506Z,8.64
2017-11-17T18:35:47.219Z,8.82
2017-11-17T18:38:16.036Z,9.00
2017-11-17T18:40:44.924Z,8.76
2017-11-17T18:43:13.777Z,8.97
2017-11-17T18:45:42.745Z,8.52
2017-11-17T18:48:11.576Z,8.50
2017-11-17T18:50:40.310Z,8.32
2017-11-17T18:53:09.176Z,8.79
2017-11-17T18:55:38.761Z,8.71
2017-11-17T18:58:07.774Z,8.92
2017-11-17T19:00:36.713Z,8.62
2017-11-17T19:03:05.484Z,8.50
2017-11-17T19:05:34.434Z,8.82
2017-11-17T19:08:04.257Z,8.55
2017-11-17T19:10:33.897Z,8.81
2017-11-17T19:13:03.096Z,8.67
2017-11-17T19:15:31.932Z,8.74
2017-11-17T19:18:00.651Z,8.65
2017-11-17T19:20:29.622Z,8.50
2017-11-17T19:22:58.409Z,8.59
2017-11-17T19:25:27.349Z,8.35
2017-11-17T19:27:56.427Z,8.68
2017-11-17T19:30:25.740Z,8.51
2017-11-17T19:32:54.788Z,8.57
2017-11-17T19:35:23.691Z,8.48
2017-11-17T19:37:52.965Z,8.46
2017-11-17T19:40:21.670Z,8.60
2017-11-17T19:42:50.672Z,8.30
2017-11-17T19:45:20.234Z,8.38
2017-11-17T19:47:49.512Z,8.45
2017-11-17T19:50:18.230Z,8.71
2017-11-17T19:52:47.903Z,8.76
2017-11-17T19:55:16.549Z,8.98
2017-11-17T19:57:45.340Z,8.59
2017-11-17T20:00:14.756Z,8.77
2017-11-17T20:02:43.414Z,8.75
2017-11-17T20:05:12.915Z,8.91
2017-11-17T20:07:42.767Z,8.30
2017-11-17T20:10:11.560Z,8.43
2017-11-17T20:12:40.378Z,8.56
2017-11-17T20:15:09.405Z,8.20
2017-11-17T20:17:38.226Z,8.34
2017-11-17T20:20:07.164Z,8.43
2017-11-17T20:22:35.882Z,8.43
2017-11-17T20:25:04.561Z,8.43
2017-11-17T20:27:33.408Z,8.56
2017-11-17T20:30:02.399Z,8.72
2017-11-17T20:32:31.090Z,8.54
2017-11-17T20:34:59.796Z,8.64
2017-11-17T20:37:29.408Z,8.14
2017-11-17T20:39:58.427Z,8.51
2017-11-17T20:42:27.274Z,8.36
2017-11-17T20:44:57.459Z,8.22
2017-11-17T20:47:26.295Z,8.14
2017-11-17T20:49:55.263Z,8.52
2017-11-17T20:52:25.168Z,8.44
2017-11-17T20:54:53.880Z,8.07
2017-11-17T20:57:22.774Z,8.41
2017-11-17T20:59:52.850Z,8.25
2017-11-17T21:02:21.633Z,8.34
2017-11-17T21:04:50.517Z,8.55
2017-11-17T21:07:19.298Z,8.60
2017-11-17T21:09:47.999Z,8.58
2017-11-17T21:12:16.674Z,8.60
2017-11-17T21:14:45.578Z,8.63
2017-11-17T21:17:14.256Z,8.63
2017-11-17T21:19:42.976Z,8.26
2017-11-17T21:22:11.793Z,8.31
2017-11-17T21:24:40.508Z,8.14
2017-11-17T21:27:09.288Z,8.16
2017-11-17T21:29:37.957Z,8.04
2017-11-17T21:32:06.919Z,8.34
2017-11-17T21:34:36.482Z,8.48
2017-11-17T21:37:05.874Z,8.50
2017-11-17T21:39:34.625Z,8.64
2017-11-17T21:42:04.123Z,8.55
2017-11-17T21:44:32.933Z,8.44
2017-11-17T21:47:01.654Z,8.33
2017-11-17T21:49:31.159Z,8.34
2017-11-17T21:51:59.936Z,8.11
2017-11-17T21:54:28.810Z,8.16
2017-11-17T21:56:58.525Z,8.13
2017-11-17T21:59:27.449Z,8.07
2017-11-17T22:01:56.395Z,7.72
2017-11-17T22:04:25.076Z,7.88
2017-11-17T22:06:53.791Z,8.06
2017-11-17T22:09:22.520Z,7.86
2017-11-17T22:11:52.009Z,7.99
2017-11-17T22:14:21.043Z,8.11
2017-11-17T22:16:50.008Z,8.31
2017-11-17T22:19:18.890Z,8.13
2017-11-17T22:21:47.689Z,8.16
2017-11-17T22:24:16.520Z,8.45
2017-11-17T22:26:45.311Z,8.43
2017-11-17T22:29:14.357Z,8.35
2017-11-17T22:31:43.090Z,8.20
2017-11-17T22:34:11.877Z,8.05
2017-11-17T22:36:40.753Z,8.11
2017-11-17T22:39:09.722Z,8.13
2017-11-17T22:41:38.392Z,7.88
2017-11-17T22:44:07.231Z,8.05
2017-11-17T22:46:36.089Z,8.48
2017-11-17T22:49:04.791Z,8.51
2017-11-17T22:51:34.285Z,8.32
2017-11-17T22:54:03.054Z,8.37
2017-11-17T22:56:32.010Z,8.33
2017-11-17T22:59:00.749Z,8.48
2017-11-17T23:01:29.485Z,7.94
2017-11-17T23:03:58.285Z,7.96
2017-11-17T23:06:28.170Z,8.02
2017-11-17T23:08:57.321Z,8.22
2017-11-17T23:11:26.182Z,8.23
2017-11-17T23:13:55.750Z,8.66
2017-11-17T23:16:25.188Z,8.68
2017-11-17T23:18:54.905Z,8.27
2017-11-17T23:21:25.467Z,8.22
2017-11-17T23:23:54.347Z,8.46
2017-11-17T23:26:23.589Z,8.79
2017-11-17T23:28:52.222Z,8.61
2017-11-17T23:31:21.228Z,8.47
2017-11-17T23:33:50.036Z,8.70
2017-11-17T23:36:18.736Z,8.74
2017-11-17T23:38:48.290Z,8.60
2017-11-17T23:41:17.018Z,8.75
2017-11-17T23:43:45.853Z,8.29
2017-11-17T23:46:14.700Z,8.38
2017-11-17T23:48:43.731Z,8.32
2017-11-17T23:51:12.502Z,8.07
2017-11-17T23:53:41.249Z,8.46
2017-11-17T23:56:11.245Z,8.15
2017-11-17T23:58:40.000Z,8.06
